sensor_id;sensor_type;location;lat;lon;timestamp;P1;durP1;ratioP1;P2;durP2;ratioP2
20454;SDS011;10386;54.314;10.022;2023-03-20T00:02:04;27.47;;;12.83;;
20454;SDS011;10386;54.314;10.022;2023-03-20T00:04:32;24.40;;;11.47;;
20454;SDS011;10386;54.314;10.022;2023-03-20T00:06:59;17.43;;;8.47;;
20454;SDS011;10386;54.314;10.022;2023-03-20T00:09:26;19.67;;;9.37;;
20454;SDS011;10386;54.314;10.022;2023-03-20T00:11:53;18.87;;;9.23;;
20454;SDS011;10386;54.314;10.022;2023-03-20T00:14:21;17.57;;;9.30;;
20454;SDS011;10386;54.314;10.022;2023-03-20T00:16:50;17.73;;;9.03;;
20454;SDS011;10386;54.314;10.022;2023-03-20T00:19:18;12.93;;;7.87;;
20454;SDS011;10386;54.314;10.022;2023-03-20T00:21:48;11.13;;;5.67;;
20454;SDS011;10386;54.314;10.022;2023-03-20T00:24:16;14.20;;;6.20;;
20454;SDS011;10386;54.314;10.022;2023-03-20T00:26:43;10.43;;;6.53;;
20454;SDS011;10386;54.314;10.022;2023-03-20T00:29:14;16.57;;;7.17;;
20454;SDS011;10386;54.314;10.022;2023-03-20T00:31:46;11.20;;;7.13;;
20454;SDS011;10386;54.314;10.022;2023-03-20T00:34:14;12.60;;;7.43;;
20454;SDS011;10386;54.314;10.022;2023-03-20T00:36:42;10.70;;;6.90;;
20454;SDS011;10386;54.314;10.022;2023-03-20T00:39:09;10.93;;;5.80;;
20454;SDS011;10386;54.314;10.022;2023-03-20T00:46:50;9.73;;;5.50;;
20454;SDS011;10386;54.314;10.022;2023-03-20T00:49:32;12.33;;;6.20;;
20454;SDS011;10386;54.314;10.022;2023-03-20T00:52:01;12.17;;;6.53;;
20454;SDS011;10386;54.314;10.022;2023-03-20T00:54:28;10.83;;;5.87;;
20454;SDS011;10386;54.314;10.022;2023-03-20T00:59:35;14.43;;;8.10;;
20454;SDS011;10386;54.314;10.022;2023-03-20T01:02:07;17.17;;;7.93;;
20454;SDS011;10386;54.314;10.022;2023-03-20T01:04:40;17.00;;;8.57;;
20454;SDS011;10386;54.314;10.022;2023-03-20T01:07:09;15.93;;;8.53;;
20454;SDS011;10386;54.314;10.022;2023-03-20T01:09:39;16.50;;;8.60;;
20454;SDS011;10386;54.314;10.022;2023-03-20T01:12:08;14.47;;;7.43;;
20454;SDS011;10386;54.314;10.022;2023-03-20T01:14:37;15.27;;;8.17;;
20454;SDS011;10386;54.314;10.022;2023-03-20T01:17:04;16.27;;;8.30;;
20454;SDS011;10386;54.314;10.022;2023-03-20T01:19:31;15.47;;;7.17;;
20454;SDS011;10386;54.314;10.022;2023-03-20T01:21:58;15.00;;;6.80;;
20454;SDS011;10386;54.314;10.022;2023-03-20T01:24:24;12.27;;;6.37;;
20454;SDS011;10386;54.314;10.022;2023-03-20T01:26:51;12.83;;;6.27;;
20454;SDS011;10386;54.314;10.022;2023-03-20T01:31:47;15.87;;;7.70;;
20454;SDS011;10386;54.314;10.022;2023-03-20T01:34:14;15.00;;;8.50;;
20454;SDS011;10386;54.314;10.022;2023-03-20T01:36:46;16.80;;;9.00;;
20454;SDS011;10386;54.314;10.022;2023-03-20T01:39:16;17.47;;;8.67;;
20454;SDS011;10386;54.314;10.022;2023-03-20T01:41:44;16.20;;;9.17;;
20454;SDS011;10386;54.314;10.022;2023-03-20T01:44:17;16.13;;;8.37;;
20454;SDS011;10386;54.314;10.022;2023-03-20T01:46:48;15.17;;;8.20;;
20454;SDS011;10386;54.314;10.022;2023-03-20T01:51:47;8.73;;;5.40;;
20454;SDS011;10386;54.314;10.022;2023-03-20T01:54:26;5.23;;;3.77;;
20454;SDS011;10386;54.314;10.022;2023-03-20T01:56:58;6.00;;;3.97;;
20454;SDS011;10386;54.314;10.022;2023-03-20T01:59:30;6.27;;;3.50;;
20454;SDS011;10386;54.314;10.022;2023-03-20T02:02:01;5.77;;;3.13;;
20454;SDS011;10386;54.314;10.022;2023-03-20T02:04:37;5.40;;;3.67;;
20454;SDS011;10386;54.314;10.022;2023-03-20T02:07:09;5.23;;;3.20;;
20454;SDS011;10386;54.314;10.022;2023-03-20T02:09:38;5.30;;;3.20;;
20454;SDS011;10386;54.314;10.022;2023-03-20T02:12:05;7.03;;;3.53;;
20454;SDS011;10386;54.314;10.022;2023-03-20T02:14:32;4.80;;;3.20;;
20454;SDS011;10386;54.314;10.022;2023-03-20T02:16:59;4.93;;;3.20;;
20454;SDS011;10386;54.314;10.022;2023-03-20T02:19:28;5.73;;;3.70;;
20454;SDS011;10386;54.314;10.022;2023-03-20T02:22:17;5.80;;;3.57;;
20454;SDS011;10386;54.314;10.022;2023-03-20T02:33:29;14.27;;;6.70;;
20454;SDS011;10386;54.314;10.022;2023-03-20T02:41:45;17.50;;;8.00;;
20454;SDS011;10386;54.314;10.022;2023-03-20T02:55:13;20.53;;;10.70;;
20454;SDS011;10386;54.314;10.022;2023-03-20T02:58:11;20.60;;;10.97;;
20454;SDS011;10386;54.314;10.022;2023-03-20T03:00:55;22.67;;;11.17;;
20454;SDS011;10386;54.314;10.022;2023-03-20T03:03:36;20.67;;;10.73;;
20454;SDS011;10386;54.314;10.022;2023-03-20T03:08:40;17.80;;;10.23;;
20454;SDS011;10386;54.314;10.022;2023-03-20T03:11:11;17.90;;;9.60;;
20454;SDS011;10386;54.314;10.022;2023-03-20T03:13:39;14.87;;;7.73;;
20454;SDS011;10386;54.314;10.022;2023-03-20T03:16:13;17.10;;;7.60;;
20454;SDS011;10386;54.314;10.022;2023-03-20T03:18:45;10.83;;;6.33;;
20454;SDS011;10386;54.314;10.022;2023-03-20T03:21:13;9.37;;;5.93;;
20454;SDS011;10386;54.314;10.022;2023-03-20T03:23:46;11.50;;;6.23;;
20454;SDS011;10386;54.314;10.022;2023-03-20T03:26:17;8.70;;;4.90;;
20454;SDS011;10386;54.314;10.022;2023-03-20T03:28:52;9.17;;;4.90;;
20454;SDS011;10386;54.314;10.022;2023-03-20T03:31:23;6.07;;;4.90;;
20454;SDS011;10386;54.314;10.022;2023-03-20T03:33:52;6.43;;;5.00;;
20454;SDS011;10386;54.314;10.022;2023-03-20T03:36:28;6.70;;;4.77;;
20454;SDS011;10386;54.314;10.022;2023-03-20T03:39:14;6.53;;;4.07;;
20454;SDS011;10386;54.314;10.022;2023-03-20T03:41:54;9.43;;;4.50;;
20454;SDS011;10386;54.314;10.022;2023-03-20T03:47:45;5.70;;;4.50;;
20454;SDS011;10386;54.314;10.022;2023-03-20T03:50:37;5.87;;;4.20;;
20454;SDS011;10386;54.314;10.022;2023-03-20T03:53:14;5.73;;;4.03;;
20454;SDS011;10386;54.314;10.022;2023-03-20T03:55:47;6.60;;;4.37;;
20454;SDS011;10386;54.314;10.022;2023-03-20T03:58:22;5.83;;;4.17;;
20454;SDS011;10386;54.314;10.022;2023-03-20T04:00:53;7.80;;;4.80;;
20454;SDS011;10386;54.314;10.022;2023-03-20T04:03:24;7.53;;;4.10;;
20454;SDS011;10386;54.314;10.022;2023-03-20T04:05:56;7.40;;;5.03;;
20454;SDS011;10386;54.314;10.022;2023-03-20T04:08:25;10.30;;;5.10;;
20454;SDS011;10386;54.314;10.022;2023-03-20T04:10:52;8.50;;;5.53;;
20454;SDS011;10386;54.314;10.022;2023-03-20T04:13:18;10.97;;;6.20;;
20454;SDS011;10386;54.314;10.022;2023-03-20T04:15:45;14.23;;;7.07;;
20454;SDS011;10386;54.314;10.022;2023-03-20T04:18:13;12.33;;;6.67;;
20454;SDS011;10386;54.314;10.022;2023-03-20T04:20:45;14.13;;;6.47;;
20454;SDS011;10386;54.314;10.022;2023-03-20T04:23:13;12.17;;;6.80;;
20454;SDS011;10386;54.314;10.022;2023-03-20T04:25:40;13.20;;;6.73;;
20454;SDS011;10386;54.314;10.022;2023-03-20T04:28:06;10.97;;;6.40;;
20454;SDS011;10386;54.314;10.022;2023-03-20T04:30:33;11.93;;;6.43;;
20454;SDS011;10386;54.314;10.022;2023-03-20T04:33:00;14.37;;;7.07;;
20454;SDS011;10386;54.314;10.022;2023-03-20T04:35:27;17.67;;;7.47;;
20454;SDS011;10386;54.314;10.022;2023-03-20T04:37:54;15.60;;;8.27;;
20454;SDS011;10386;54.314;10.022;2023-03-20T04:40:20;16.87;;;7.97;;
20454;SDS011;10386;54.314;10.022;2023-03-20T04:42:47;16.43;;;8.20;;
20454;SDS011;10386;54.314;10.022;2023-03-20T04:45:14;17.33;;;8.53;;
20454;SDS011;10386;54.314;10.022;2023-03-20T04:47:41;18.57;;;9.10;;
20454;SDS011;10386;54.314;10.022;2023-03-20T04:50:07;18.67;;;8.77;;
20454;SDS011;10386;54.314;10.022;2023-03-20T04:52:35;21.13;;;8.60;;
20454;SDS011;10386;54.314;10.022;2023-03-20T04:55:01;21.43;;;9.03;;
20454;SDS011;10386;54.314;10.022;2023-03-20T04:57:28;19.13;;;9.33;;
20454;SDS011;10386;54.314;10.022;2023-03-20T04:59:57;21.03;;;9.50;;
20454;SDS011;10386;54.314;10.022;2023-03-20T05:02:24;19.20;;;10.00;;
20454;SDS011;10386;54.314;10.022;2023-03-20T05:04:50;18.67;;;8.93;;
20454;SDS011;10386;54.314;10.022;2023-03-20T05:07:17;24.40;;;10.33;;
20454;SDS011;10386;54.314;10.022;2023-03-20T05:09:44;22.20;;;10.03;;
20454;SDS011;10386;54.314;10.022;2023-03-20T05:12:11;16.63;;;9.77;;
20454;SDS011;10386;54.314;10.022;2023-03-20T05:14:38;20.13;;;10.17;;
20454;SDS011;10386;54.314;10.022;2023-03-20T05:17:05;19.40;;;9.77;;
20454;SDS011;10386;54.314;10.022;2023-03-20T05:19:32;23.77;;;10.53;;
20454;SDS011;10386;54.314;10.022;2023-03-20T05:21:58;19.90;;;10.10;;
20454;SDS011;10386;54.314;10.022;2023-03-20T05:24:26;24.17;;;11.10;;
20454;SDS011;10386;54.314;10.022;2023-03-20T05:26:54;21.43;;;10.60;;
20454;SDS011;10386;54.314;10.022;2023-03-20T05:29:21;26.17;;;12.03;;
20454;SDS011;10386;54.314;10.022;2023-03-20T05:31:47;22.43;;;11.47;;
20454;SDS011;10386;54.314;10.022;2023-03-20T05:34:14;24.40;;;11.40;;
20454;SDS011;10386;54.314;10.022;2023-03-20T05:36:41;20.80;;;10.20;;
20454;SDS011;10386;54.314;10.022;2023-03-20T05:39:08;20.50;;;10.03;;
20454;SDS011;10386;54.314;10.022;2023-03-20T05:41:34;23.90;;;10.30;;
20454;SDS011;10386;54.314;10.022;2023-03-20T05:44:02;22.63;;;10.90;;
20454;SDS011;10386;54.314;10.022;2023-03-20T05:46:29;24.23;;;10.00;;
20454;SDS011;10386;54.314;10.022;2023-03-20T05:48:56;22.53;;;10.73;;
20454;SDS011;10386;54.314;10.022;2023-03-20T05:51:23;27.37;;;11.23;;
20454;SDS011;10386;54.314;10.022;2023-03-20T05:53:50;28.87;;;12.23;;
20454;SDS011;10386;54.314;10.022;2023-03-20T05:56:16;26.53;;;12.37;;
20454;SDS011;10386;54.314;10.022;2023-03-20T05:58:43;28.73;;;13.17;;
20454;SDS011;10386;54.314;10.022;2023-03-20T06:01:10;28.67;;;13.63;;
20454;SDS011;10386;54.314;10.022;2023-03-20T06:03:45;27.30;;;13.50;;
20454;SDS011;10386;54.314;10.022;2023-03-20T06:06:11;30.93;;;13.50;;
20454;SDS011;10386;54.314;10.022;2023-03-20T06:08:38;32.03;;;11.53;;
20454;SDS011;10386;54.314;10.022;2023-03-20T06:11:06;23.70;;;11.17;;
20454;SDS011;10386;54.314;10.022;2023-03-20T06:13:32;18.10;;;9.53;;
20454;SDS011;10386;54.314;10.022;2023-03-20T06:15:59;20.93;;;9.50;;
20454;SDS011;10386;54.314;10.022;2023-03-20T06:18:26;22.30;;;9.60;;
20454;SDS011;10386;54.314;10.022;2023-03-20T06:20:53;21.40;;;9.93;;
20454;SDS011;10386;54.314;10.022;2023-03-20T06:23:21;19.77;;;9.07;;
20454;SDS011;10386;54.314;10.022;2023-03-20T06:25:48;18.80;;;8.43;;
20454;SDS011;10386;54.314;10.022;2023-03-20T06:28:17;21.70;;;9.07;;
20454;SDS011;10386;54.314;10.022;2023-03-20T06:30:43;21.77;;;9.13;;
20454;SDS011;10386;54.314;10.022;2023-03-20T06:33:10;19.57;;;9.00;;
20454;SDS011;10386;54.314;10.022;2023-03-20T06:35:37;18.27;;;8.57;;
20454;SDS011;10386;54.314;10.022;2023-03-20T06:38:04;19.95;;;8.93;;
20454;SDS011;10386;54.314;10.022;2023-03-20T06:40:31;18.67;;;7.93;;
20454;SDS011;10386;54.314;10.022;2023-03-20T06:42:58;21.30;;;7.70;;
20454;SDS011;10386;54.314;10.022;2023-03-20T06:45:25;19.03;;;7.60;;
20454;SDS011;10386;54.314;10.022;2023-03-20T06:47:52;17.70;;;8.10;;
20454;SDS011;10386;54.314;10.022;2023-03-20T06:50:18;14.53;;;7.10;;
20454;SDS011;10386;54.314;10.022;2023-03-20T06:52:45;14.50;;;7.20;;
20454;SDS011;10386;54.314;10.022;2023-03-20T06:55:12;15.53;;;7.10;;
20454;SDS011;10386;54.314;10.022;2023-03-20T06:57:39;20.73;;;7.10;;
20454;SDS011;10386;54.314;10.022;2023-03-20T07:00:06;15.10;;;6.83;;
20454;SDS011;10386;54.314;10.022;2023-03-20T07:02:35;15.37;;;6.77;;
20454;SDS011;10386;54.314;10.022;2023-03-20T07:05:02;18.43;;;7.03;;
20454;SDS011;10386;54.314;10.022;2023-03-20T07:07:29;17.60;;;6.97;;
20454;SDS011;10386;54.314;10.022;2023-03-20T07:09:55;16.07;;;6.37;;
20454;SDS011;10386;54.314;10.022;2023-03-20T07:12:22;18.27;;;6.27;;
20454;SDS011;10386;54.314;10.022;2023-03-20T07:14:53;14.40;;;5.80;;
20454;SDS011;10386;54.314;10.022;2023-03-20T07:17:21;14.43;;;6.20;;
20454;SDS011;10386;54.314;10.022;2023-03-20T07:19:48;13.03;;;5.43;;
20454;SDS011;10386;54.314;10.022;2023-03-20T07:22:22;10.47;;;4.93;;
20454;SDS011;10386;54.314;10.022;2023-03-20T07:24:51;11.13;;;5.20;;
20454;SDS011;10386;54.314;10.022;2023-03-20T07:27:18;18.57;;;5.63;;
20454;SDS011;10386;54.314;10.022;2023-03-20T07:29:45;11.13;;;5.30;;
20454;SDS011;10386;54.314;10.022;2023-03-20T07:32:12;10.93;;;4.90;;
20454;SDS011;10386;54.314;10.022;2023-03-20T07:34:38;9.77;;;4.63;;
20454;SDS011;10386;54.314;10.022;2023-03-20T07:37:05;11.33;;;5.20;;
20454;SDS011;10386;54.314;10.022;2023-03-20T07:39:32;12.03;;;4.90;;
20454;SDS011;10386;54.314;10.022;2023-03-20T07:41:59;8.33;;;4.63;;
20454;SDS011;10386;54.314;10.022;2023-03-20T07:44:26;10.50;;;4.80;;
20454;SDS011;10386;54.314;10.022;2023-03-20T07:46:52;12.43;;;5.00;;
20454;SDS011;10386;54.314;10.022;2023-03-20T07:49:19;10.60;;;5.13;;
20454;SDS011;10386;54.314;10.022;2023-03-20T07:51:46;9.60;;;5.20;;
20454;SDS011;10386;54.314;10.022;2023-03-20T07:54:14;8.13;;;4.63;;
20454;SDS011;10386;54.314;10.022;2023-03-20T07:56:42;14.20;;;5.03;;
20454;SDS011;10386;54.314;10.022;2023-03-20T07:59:08;12.93;;;5.13;;
20454;SDS011;10386;54.314;10.022;2023-03-20T08:01:35;14.73;;;5.57;;
20454;SDS011;10386;54.314;10.022;2023-03-20T08:04:02;14.20;;;5.43;;
20454;SDS011;10386;54.314;10.022;2023-03-20T08:06:29;10.90;;;5.20;;
20454;SDS011;10386;54.314;10.022;2023-03-20T08:08:56;16.33;;;5.70;;
20454;SDS011;10386;54.314;10.022;2023-03-20T08:11:23;12.80;;;5.20;;
20454;SDS011;10386;54.314;10.022;2023-03-20T08:13:50;11.40;;;5.00;;
20454;SDS011;10386;54.314;10.022;2023-03-20T08:16:16;11.27;;;5.37;;
20454;SDS011;10386;54.314;10.022;2023-03-20T08:18:43;13.20;;;4.70;;
20454;SDS011;10386;54.314;10.022;2023-03-20T08:21:10;16.03;;;5.40;;
20454;SDS011;10386;54.314;10.022;2023-03-20T08:23:37;18.60;;;5.70;;
20454;SDS011;10386;54.314;10.022;2023-03-20T08:26:04;11.13;;;5.07;;
20454;SDS011;10386;54.314;10.022;2023-03-20T08:28:30;14.70;;;5.50;;
20454;SDS011;10386;54.314;10.022;2023-03-20T08:31:13;12.70;;;5.33;;
20454;SDS011;10386;54.314;10.022;2023-03-20T08:33:39;13.60;;;5.90;;
20454;SDS011;10386;54.314;10.022;2023-03-20T08:36:06;14.67;;;6.20;;
20454;SDS011;10386;54.314;10.022;2023-03-20T08:38:33;12.77;;;5.77;;
20454;SDS011;10386;54.314;10.022;2023-03-20T08:41:01;13.47;;;5.40;;
20454;SDS011;10386;54.314;10.022;2023-03-20T08:43:27;17.13;;;6.00;;
20454;SDS011;10386;54.314;10.022;2023-03-20T08:45:55;15.43;;;5.67;;
20454;SDS011;10386;54.314;10.022;2023-03-20T08:48:22;12.77;;;5.70;;
20454;SDS011;10386;54.314;10.022;2023-03-20T08:50:48;15.37;;;6.67;;
20454;SDS011;10386;54.314;10.022;2023-03-20T08:53:15;17.57;;;6.53;;
20454;SDS011;10386;54.314;10.022;2023-03-20T08:55:51;19.40;;;7.60;;
20454;SDS011;10386;54.314;10.022;2023-03-20T08:58:19;14.33;;;6.60;;
20454;SDS011;10386;54.314;10.022;2023-03-20T09:00:46;18.83;;;7.67;;
20454;SDS011;10386;54.314;10.022;2023-03-20T09:03:13;15.63;;;7.47;;
20454;SDS011;10386;54.314;10.022;2023-03-20T09:05:43;17.13;;;7.70;;
20454;SDS011;10386;54.314;10.022;2023-03-20T09:08:11;20.37;;;9.20;;
20454;SDS011;10386;54.314;10.022;2023-03-20T09:10:39;19.23;;;10.40;;
20454;SDS011;10386;54.314;10.022;2023-03-20T09:13:06;23.77;;;10.07;;
20454;SDS011;10386;54.314;10.022;2023-03-20T09:15:51;19.80;;;10.10;;
20454;SDS011;10386;54.314;10.022;2023-03-20T09:18:19;25.07;;;11.27;;
20454;SDS011;10386;54.314;10.022;2023-03-20T09:20:47;25.27;;;12.50;;
20454;SDS011;10386;54.314;10.022;2023-03-20T09:23:14;20.47;;;10.77;;
20454;SDS011;10386;54.314;10.022;2023-03-20T09:25:41;26.50;;;12.10;;
20454;SDS011;10386;54.314;10.022;2023-03-20T09:28:08;30.07;;;12.43;;
20454;SDS011;10386;54.314;10.022;2023-03-20T09:30:34;29.07;;;12.83;;
20454;SDS011;10386;54.314;10.022;2023-03-20T09:33:02;25.37;;;12.40;;
20454;SDS011;10386;54.314;10.022;2023-03-20T09:35:29;22.17;;;11.90;;
20454;SDS011;10386;54.314;10.022;2023-03-20T09:37:56;24.43;;;12.43;;
20454;SDS011;10386;54.314;10.022;2023-03-20T09:40:26;25.30;;;13.80;;
20454;SDS011;10386;54.314;10.022;2023-03-20T09:42:59;27.17;;;13.60;;
20454;SDS011;10386;54.314;10.022;2023-03-20T09:45:40;30.67;;;14.60;;
20454;SDS011;10386;54.314;10.022;2023-03-20T09:53:39;31.30;;;15.53;;
20454;SDS011;10386;54.314;10.022;2023-03-20T09:56:22;27.83;;;15.30;;
20454;SDS011;10386;54.314;10.022;2023-03-20T09:58:53;30.13;;;15.37;;
20454;SDS011;10386;54.314;10.022;2023-03-20T10:01:23;30.63;;;15.40;;
20454;SDS011;10386;54.314;10.022;2023-03-20T10:03:56;33.10;;;14.53;;
20454;SDS011;10386;54.314;10.022;2023-03-20T10:06:29;31.97;;;15.00;;
20454;SDS011;10386;54.314;10.022;2023-03-20T10:08:56;27.47;;;14.73;;
20454;SDS011;10386;54.314;10.022;2023-03-20T10:20:24;27.87;;;14.07;;
20454;SDS011;10386;54.314;10.022;2023-03-20T10:23:05;27.03;;;14.27;;
20454;SDS011;10386;54.314;10.022;2023-03-20T10:25:39;26.97;;;15.00;;
20454;SDS011;10386;54.314;10.022;2023-03-20T10:28:15;31.20;;;15.10;;
20454;SDS011;10386;54.314;10.022;2023-03-20T10:33:42;27.47;;;15.30;;
20454;SDS011;10386;54.314;10.022;2023-03-20T10:42:07;27.83;;;14.90;;
20454;SDS011;10386;54.314;10.022;2023-03-20T10:44:41;32.97;;;16.83;;
20454;SDS011;10386;54.314;10.022;2023-03-20T10:47:15;37.67;;;16.37;;
20454;SDS011;10386;54.314;10.022;2023-03-20T10:49:54;30.53;;;15.57;;
20454;SDS011;10386;54.314;10.022;2023-03-20T10:52:27;32.30;;;15.57;;
20454;SDS011;10386;54.314;10.022;2023-03-20T10:54:59;30.93;;;14.23;;
20454;SDS011;10386;54.314;10.022;2023-03-20T10:57:32;32.17;;;15.53;;
20454;SDS011;10386;54.314;10.022;2023-03-20T11:00:03;32.90;;;15.30;;
20454;SDS011;10386;54.314;10.022;2023-03-20T11:02:36;34.47;;;13.80;;
20454;SDS011;10386;54.314;10.022;2023-03-20T11:05:09;32.83;;;14.73;;
20454;SDS011;10386;54.314;10.022;2023-03-20T11:07:45;33.73;;;15.40;;
20454;SDS011;10386;54.314;10.022;2023-03-20T11:10:14;32.10;;;14.37;;
20454;SDS011;10386;54.314;10.022;2023-03-20T11:12:43;29.50;;;14.40;;
20454;SDS011;10386;54.314;10.022;2023-03-20T11:15:25;33.47;;;14.73;;
20454;SDS011;10386;54.314;10.022;2023-03-20T11:17:59;33.27;;;13.77;;
20454;SDS011;10386;54.314;10.022;2023-03-20T11:20:50;27.20;;;13.30;;
20454;SDS011;10386;54.314;10.022;2023-03-20T11:23:26;29.73;;;13.63;;
20454;SDS011;10386;54.314;10.022;2023-03-20T11:25:57;27.23;;;12.57;;
20454;SDS011;10386;54.314;10.022;2023-03-20T11:28:38;26.43;;;12.50;;
20454;SDS011;10386;54.314;10.022;2023-03-20T11:33:37;26.33;;;12.27;;
20454;SDS011;10386;54.314;10.022;2023-03-20T11:38:45;28.30;;;12.10;;
20454;SDS011;10386;54.314;10.022;2023-03-20T11:41:16;28.80;;;12.97;;
20454;SDS011;10386;54.314;10.022;2023-03-20T11:43:44;29.30;;;13.03;;
20454;SDS011;10386;54.314;10.022;2023-03-20T11:46:11;27.90;;;13.57;;
20454;SDS011;10386;54.314;10.022;2023-03-20T11:48:40;29.93;;;13.50;;
20454;SDS011;10386;54.314;10.022;2023-03-20T11:51:18;27.03;;;13.30;;
20454;SDS011;10386;54.314;10.022;2023-03-20T11:56:14;28.67;;;13.87;;
20454;SDS011;10386;54.314;10.022;2023-03-20T11:58:56;25.87;;;12.83;;
20454;SDS011;10386;54.314;10.022;2023-03-20T12:01:36;29.50;;;12.67;;
20454;SDS011;10386;54.314;10.022;2023-03-20T12:04:11;30.33;;;12.47;;
20454;SDS011;10386;54.314;10.022;2023-03-20T12:06:42;31.47;;;12.83;;
20454;SDS011;10386;54.314;10.022;2023-03-20T12:12:00;34.20;;;15.00;;
20454;SDS011;10386;54.314;10.022;2023-03-20T12:14:34;30.63;;;13.87;;
20454;SDS011;10386;54.314;10.022;2023-03-20T12:17:13;34.90;;;15.03;;
20454;SDS011;10386;54.314;10.022;2023-03-20T12:20:02;33.63;;;14.97;;
20454;SDS011;10386;54.314;10.022;2023-03-20T12:22:37;30.30;;;14.47;;
20454;SDS011;10386;54.314;10.022;2023-03-20T12:27:45;31.90;;;14.40;;
20454;SDS011;10386;54.314;10.022;2023-03-20T12:30:20;28.77;;;13.17;;
20454;SDS011;10386;54.314;10.022;2023-03-20T12:33:03;26.20;;;12.60;;
20454;SDS011;10386;54.314;10.022;2023-03-20T12:35:40;29.47;;;11.57;;
20454;SDS011;10386;54.314;10.022;2023-03-20T12:38:30;27.90;;;12.83;;
20454;SDS011;10386;54.314;10.022;2023-03-20T12:41:03;28.47;;;11.50;;
20454;SDS011;10386;54.314;10.022;2023-03-20T12:43:41;24.33;;;11.73;;
20454;SDS011;10386;54.314;10.022;2023-03-20T12:51:56;21.03;;;9.80;;
20454;SDS011;10386;54.314;10.022;2023-03-20T13:00:34;21.73;;;10.87;;
20454;SDS011;10386;54.314;10.022;2023-03-20T13:26:12;27.97;;;11.33;;
20454;SDS011;10386;54.314;10.022;2023-03-20T13:28:51;20.57;;;10.23;;
20454;SDS011;10386;54.314;10.022;2023-03-20T13:37:06;24.20;;;11.07;;
20454;SDS011;10386;54.314;10.022;2023-03-20T13:45:46;21.07;;;9.50;;
20454;SDS011;10386;54.314;10.022;2023-03-20T14:05:13;21.57;;;10.03;;
20454;SDS011;10386;54.314;10.022;2023-03-20T14:07:44;18.43;;;8.90;;
20454;SDS011;10386;54.314;10.022;2023-03-20T14:12:49;22.70;;;9.10;;
20454;SDS011;10386;54.314;10.022;2023-03-20T14:15:20;20.00;;;9.67;;
20454;SDS011;10386;54.314;10.022;2023-03-20T14:17:52;19.80;;;9.47;;
20454;SDS011;10386;54.314;10.022;2023-03-20T14:22:52;18.20;;;9.77;;
20454;SDS011;10386;54.314;10.022;2023-03-20T14:25:19;18.23;;;10.03;;
20454;SDS011;10386;54.314;10.022;2023-03-20T14:27:53;17.80;;;9.30;;
20454;SDS011;10386;54.314;10.022;2023-03-20T14:32:57;17.67;;;7.93;;
20454;SDS011;10386;54.314;10.022;2023-03-20T14:35:34;20.70;;;8.37;;
20454;SDS011;10386;54.314;10.022;2023-03-20T14:46:50;19.43;;;8.37;;
20454;SDS011;10386;54.314;10.022;2023-03-20T14:49:32;23.33;;;9.67;;
20454;SDS011;10386;54.314;10.022;2023-03-20T14:54:52;20.70;;;10.73;;
20454;SDS011;10386;54.314;10.022;2023-03-20T14:57:29;25.37;;;11.23;;
20454;SDS011;10386;54.314;10.022;2023-03-20T15:02:49;27.67;;;11.50;;
20454;SDS011;10386;54.314;10.022;2023-03-20T15:05:29;26.37;;;11.90;;
20454;SDS011;10386;54.314;10.022;2023-03-20T15:08:01;24.63;;;11.33;;
20454;SDS011;10386;54.314;10.022;2023-03-20T15:10:32;25.73;;;13.27;;
20454;SDS011;10386;54.314;10.022;2023-03-20T15:13:06;23.97;;;11.30;;
20454;SDS011;10386;54.314;10.022;2023-03-20T15:15:33;26.10;;;12.60;;
20454;SDS011;10386;54.314;10.022;2023-03-20T15:18:09;28.40;;;12.63;;
20454;SDS011;10386;54.314;10.022;2023-03-20T15:20:42;28.53;;;13.33;;
20454;SDS011;10386;54.314;10.022;2023-03-20T15:23:10;27.00;;;14.20;;
20454;SDS011;10386;54.314;10.022;2023-03-20T15:25:39;27.73;;;14.30;;
20454;SDS011;10386;54.314;10.022;2023-03-20T15:28:16;29.27;;;13.57;;
20454;SDS011;10386;54.314;10.022;2023-03-20T15:30:56;29.97;;;14.03;;
20454;SDS011;10386;54.314;10.022;2023-03-20T15:33:28;24.23;;;14.00;;
20454;SDS011;10386;54.314;10.022;2023-03-20T15:36:05;26.90;;;14.20;;
20454;SDS011;10386;54.314;10.022;2023-03-20T15:38:34;30.83;;;13.93;;
20454;SDS011;10386;54.314;10.022;2023-03-20T15:41:05;34.50;;;13.80;;
20454;SDS011;10386;54.314;10.022;2023-03-20T15:43:33;31.90;;;13.83;;
20454;SDS011;10386;54.314;10.022;2023-03-20T15:46:01;27.63;;;12.73;;
20454;SDS011;10386;54.314;10.022;2023-03-20T15:48:46;25.00;;;13.43;;
20454;SDS011;10386;54.314;10.022;2023-03-20T15:51:14;26.83;;;12.90;;
20454;SDS011;10386;54.314;10.022;2023-03-20T15:53:44;23.30;;;11.70;;
20454;SDS011;10386;54.314;10.022;2023-03-20T15:56:14;24.90;;;11.07;;
20454;SDS011;10386;54.314;10.022;2023-03-20T15:58:45;21.57;;;11.40;;
20454;SDS011;10386;54.314;10.022;2023-03-20T16:01:17;27.27;;;11.27;;
20454;SDS011;10386;54.314;10.022;2023-03-20T16:03:49;22.60;;;10.83;;
20454;SDS011;10386;54.314;10.022;2023-03-20T16:06:18;20.97;;;11.23;;
20454;SDS011;10386;54.314;10.022;2023-03-20T16:11:47;21.63;;;10.17;;
20454;SDS011;10386;54.314;10.022;2023-03-20T16:14:21;23.90;;;9.80;;
20454;SDS011;10386;54.314;10.022;2023-03-20T16:16:50;22.30;;;10.03;;
20454;SDS011;10386;54.314;10.022;2023-03-20T16:19:20;23.13;;;9.97;;
20454;SDS011;10386;54.314;10.022;2023-03-20T16:21:58;23.17;;;10.10;;
20454;SDS011;10386;54.314;10.022;2023-03-20T16:24:29;25.57;;;9.43;;
20454;SDS011;10386;54.314;10.022;2023-03-20T16:27:04;22.53;;;10.43;;
20454;SDS011;10386;54.314;10.022;2023-03-20T16:29:32;24.90;;;10.10;;
20454;SDS011;10386;54.314;10.022;2023-03-20T16:34:32;22.93;;;10.40;;
20454;SDS011;10386;54.314;10.022;2023-03-20T16:37:05;24.57;;;9.47;;
20454;SDS011;10386;54.314;10.022;2023-03-20T16:39:45;21.13;;;9.60;;
20454;SDS011;10386;54.314;10.022;2023-03-20T16:42:23;20.03;;;8.60;;
20454;SDS011;10386;54.314;10.022;2023-03-20T16:44:54;18.50;;;9.23;;
20454;SDS011;10386;54.314;10.022;2023-03-20T16:47:24;22.63;;;9.13;;
20454;SDS011;10386;54.314;10.022;2023-03-20T16:50:19;18.53;;;8.53;;
20454;SDS011;10386;54.314;10.022;2023-03-20T16:52:51;17.47;;;8.37;;
20454;SDS011;10386;54.314;10.022;2023-03-20T16:55:25;21.53;;;8.60;;
20454;SDS011;10386;54.314;10.022;2023-03-20T16:57:58;20.60;;;9.13;;
20454;SDS011;10386;54.314;10.022;2023-03-20T17:00:41;18.73;;;7.73;;
20454;SDS011;10386;54.314;10.022;2023-03-20T17:03:12;26.10;;;8.57;;
20454;SDS011;10386;54.314;10.022;2023-03-20T17:06:04;20.50;;;8.63;;
20454;SDS011;10386;54.314;10.022;2023-03-20T17:08:34;19.57;;;8.53;;
20454;SDS011;10386;54.314;10.022;2023-03-20T17:11:11;20.23;;;7.90;;
20454;SDS011;10386;54.314;10.022;2023-03-20T17:13:39;21.20;;;8.07;;
20454;SDS011;10386;54.314;10.022;2023-03-20T17:16:12;19.13;;;7.70;;
20454;SDS011;10386;54.314;10.022;2023-03-20T17:18:45;14.80;;;8.03;;
20454;SDS011;10386;54.314;10.022;2023-03-20T17:21:45;17.23;;;6.93;;
20454;SDS011;10386;54.314;10.022;2023-03-20T17:24:14;17.77;;;7.53;;
20454;SDS011;10386;54.314;10.022;2023-03-20T17:26:43;23.83;;;7.70;;
20454;SDS011;10386;54.314;10.022;2023-03-20T17:29:15;22.40;;;7.63;;
20454;SDS011;10386;54.314;10.022;2023-03-20T17:31:42;18.23;;;8.10;;